Latest Weather Observations for Newcastle Nobbys

IDN60901

Issued at 10:51 pm EST Wednesday 12 August 2020 (issued every 10 minutes, with the page automatically refreshed every 10 minutes)

About weather observations | Map of Sydney area stations | Latest observations for Sydney area | Other Formats
Station Details ID: 061055 Name: NEWCASTLE NOBBYS SIGNAL STATION AWS Lat: -32.92 Lon: 151.80 Height: 33.0 m
Data from the previous 72 hours. | See also: Recent months at Newcastle Nobbys
Date/Time
EST
Temp
°C
App
Temp
°C
Dew
Point
°C
Rel
Hum
%
Delta-T
°C
Wind Press
QNH
hPa
Press
MSL
hPa
Rain since
9am
mm
Dir  Spd
km/h
Gust
km/h
Spd
kts
Gust
kts
12/10:30pm 15.3 15.5 13.0 86 1.3 W 4 7 2 4 - - 1.4
12/10:00pm 15.4 15.9 12.9 85 1.4 SW 2 9 1 5 - - 1.4
12/09:30pm 15.1 14.6 12.6 85 1.4 ESE 7 11 4 6 - - 1.4
12/09:00pm 14.7 12.9 12.2 85 1.4 S 13 15 7 8 - - 1.4
12/08:30pm 13.9 11.9 11.4 85 1.3 SSW 13 20 7 11 - - 1.2
12/08:00pm 15.7 9.6 11.9 78 2.1 WSW 35 56 19 30 - - 0.0
12/07:50pm 15.8 14.9 13.8 88 1.1 SSW 11 48 6 26 - - 0.0
12/07:30pm 16.1 17.5 14.5 90 0.9 CALM 0 2 0 1 - - 0.0
12/07:00pm 15.3 16.5 13.7 90 0.9 CALM 0 0 0 0 - - 0.0
12/06:30pm 15.4 16.6 13.8 90 0.9 CALM 0 0 0 0 - - 0.0
12/06:00pm 15.5 16.6 13.5 88 1.1 CALM 0 0 0 0 - - 0.0
12/05:30pm 15.8 16.8 13.3 85 1.4 CALM 0 0 0 0 - - 0.0
12/05:00pm 15.8 16.6 12.5 81 1.8 CALM 0 0 0 0 - - 0.0
12/04:30pm 16.5 17.6 13.4 82 1.7 CALM 0 0 0 0 - - 0.0
12/04:00pm 16.3 17.4 13.6 84 1.5 CALM 0 2 0 1 - - 0.0
12/03:30pm 16.2 17.2 13.1 82 1.7 CALM 0 0 0 0 - - 0.0
12/03:00pm 16.1 15.7 12.5 79 2.0 NNE 6 7 3 4 - - 0.0
12/02:30pm 15.8 14.7 12.0 78 2.1 N 9 11 5 6 - - 0.0
12/02:00pm 15.6 14.1 12.0 79 2.0 N 11 13 6 7 - - 0.0
12/01:30pm 15.6 12.9 11.8 78 2.1 N 17 19 9 10 - - 0.0
12/01:00pm 15.8 14.0 12.0 78 2.1 N 13 17 7 9 - - 0.0
12/12:30pm 15.0 13.2 12.0 82 1.6 N 13 15 7 8 - - 0.0
12/12:00pm 15.1 13.8 11.3 78 2.0 NNW 9 17 5 9 - - 0.0
12/11:30am 14.4 11.2 11.2 81 1.7 NNW 19 20 10 11 - - 0.0
12/11:00am 14.1 12.7 12.1 88 1.1 N 11 15 6 8 - - 0.0
12/10:30am 14.6 12.9 12.6 88 1.1 NNW 13 19 7 10 - - 0.0
12/10:00am 13.5 11.8 12.4 93 0.6 NW 13 17 7 9 - - 0.0
12/09:30am 12.4 10.8 11.6 95 0.4 NNW 11 17 6 9 - - 0.0
12/09:00am 11.9 9.8 11.3 96 0.3 NW 13 17 7 9 - - 0.0
12/08:30am 11.4 9.1 10.6 95 0.4 NNW 13 15 7 8 - - 0.0
12/08:00am 11.5 10.0 10.7 95 0.4 NNW 9 11 5 6 - - 0.0
12/07:30am 11.2 10.0 10.4 95 0.4 NW 7 9 4 5 - - 0.0
12/07:00am 11.1 9.1 10.2 94 0.5 NNW 11 13 6 7 - - 0.0
12/06:30am 11.4 9.8 10.3 93 0.6 N 9 13 5 7 - - 0.0
12/06:00am 11.8 9.6 10.7 93 0.6 N 13 15 7 8 - - 0.0
12/05:30am 11.9 10.5 11.0 94 0.5 N 9 13 5 7 - - 0.0
12/05:00am 12.4 11.2 11.6 95 0.4 N 9 11 5 6 - - 0.0
12/04:30am 11.7 10.9 10.9 95 0.4 N 6 9 3 5 - - 0.0
12/04:00am 11.6 9.8 10.8 95 0.4 N 11 15 6 8 - - 0.0
12/03:30am 11.6 9.0 10.8 95 0.4 N 15 19 8 10 - - 0.0
12/03:00am 12.1 9.8 11.6 97 0.3 N 15 17 8 9 - - 0.0
12/02:30am 12.0 11.2 11.8 99 0.1 NNE 7 11 4 6 - - 0.0
12/02:00am 11.4 10.6 11.2 99 0.1 NNW 6 9 3 5 - - 0.0
12/01:30am 11.4 10.5 11.2 99 0.1 NW 7 9 4 5 - - 0.0
12/01:00am 11.3 10.9 11.0 98 0.2 WNW 4 7 2 4 - - 0.0
12/12:30am 11.0 9.1 10.5 97 0.3 WNW 11 15 6 8 - - 0.0
12/12:00am 11.8 10.8 11.0 95 0.4 WNW 7 11 4 6 - - 0.0
 
Date/Time
EST
Temp
°C
App
Temp
°C
Dew
Point
°C
Rel
Hum
%
Delta-T
°C
Wind Press
QNH
hPa
Press
MSL
hPa
Rain since
9am
mm
Dir  Spd
km/h
Gust
km/h
Spd
kts
Gust
kts
11/11:30pm 12.2 11.4 10.9 92 0.7 WNW 6 7 3 4 - - 0.0
11/11:00pm 12.6 12.6 11.2 91 0.7 WNW 2 4 1 2 - - 0.0
11/10:30pm 13.4 14.0 12.0 91 0.8 CALM 0 0 0 0 - - 0.0
11/10:00pm 12.8 13.2 11.4 91 0.7 CALM 0 4 0 2 - - 0.0
11/09:30pm 12.4 11.6 11.0 91 0.7 W 6 7 3 4 - - 0.0
11/09:00pm 12.9 12.0 10.6 86 1.2 WNW 6 6 3 3 - - 0.0
11/08:30pm 15.2 14.9 11.6 79 1.9 WSW 4 7 2 4 - - 0.0
11/08:00pm 15.1 13.8 11.3 78 2.0 E 9 13 5 7 - - 0.0
11/07:30pm 15.1 13.8 11.3 78 2.0 ESE 9 11 5 6 - - 0.0
11/07:00pm 15.3 13.3 11.5 78 2.0 SE 13 15 7 8 - - 0.0
11/06:30pm 15.4 13.1 11.6 78 2.1 SE 15 19 8 10 - - 0.0
11/06:00pm 15.3 13.2 11.3 77 2.1 SE 13 15 7 8 - - 0.0
11/05:30pm 15.3 13.8 10.7 74 2.4 SSE 9 13 5 7 - - 0.0
11/05:00pm 15.6 14.6 11.0 74 2.5 SSE 7 11 4 6 - - 0.0
11/04:30pm 15.7 13.9 10.9 73 2.6 SSE 11 13 6 7 - - 0.0
11/04:00pm 15.8 13.8 11.4 75 2.4 S 13 15 7 8 - - 0.0
11/03:30pm 15.7 13.2 11.1 74 2.5 S 15 17 8 9 - - 0.0
11/03:00pm 15.8 13.6 10.8 72 2.7 S 13 17 7 9 - - 0.0
11/02:30pm 15.6 12.9 10.4 71 2.7 S 15 19 8 10 - - 0.0
11/02:00pm 15.9 12.6 10.9 72 2.7 S 19 20 10 11 - - 0.0
11/01:30pm 15.7 12.5 11.1 74 2.5 S 19 22 10 12 - - 0.0
11/01:00pm 15.5 12.2 10.9 74 2.4 S 19 22 10 12 - - 0.0
11/12:30pm 15.6 12.3 10.8 73 2.6 SSW 19 26 10 14 - - 0.0
11/12:00pm 15.8 12.5 11.0 73 2.6 SSW 19 26 10 14 - - 0.0
11/11:30am 15.5 12.5 10.5 72 2.6 SSW 17 24 9 13 - - 0.0
11/11:00am 15.7 12.8 10.9 73 2.6 SSW 17 22 9 12 - - 0.0
11/10:30am 14.9 11.4 10.3 74 2.4 SSW 19 28 10 15 - - 0.0
11/10:00am 15.2 12.2 10.6 74 2.4 SW 17 26 9 14 - - 0.0
11/09:30am 14.0 12.0 10.2 78 2.0 SW 11 19 6 10 - - 0.0
11/09:00am 13.6 11.1 9.8 78 2.0 SW 13 20 7 11 - - 3.8
11/08:30am 13.2 11.1 9.6 79 1.8 SW 11 17 6 9 - - 3.8
11/08:00am 13.6 11.2 10.2 80 1.8 SW 13 20 7 11 - - 3.8
11/07:30am 13.0 9.9 10.2 83 1.4 SW 17 30 9 16 - - 3.8
11/07:00am 12.4 9.2 10.0 85 1.2 SW 17 30 9 16 - - 3.8
11/06:30am 12.2 8.7 10.1 87 1.1 SW 19 30 10 16 - - 3.8
11/06:00am 11.7 8.5 10.1 90 0.8 SW 17 22 9 12 - - 3.8
11/05:30am 11.8 8.4 10.4 91 0.7 SW 19 33 10 18 - - 3.8
11/05:00am 11.4 7.8 10.5 94 0.5 WSW 20 32 11 17 - - 3.8
11/04:30am 11.2 8.2 10.7 97 0.3 WSW 17 32 9 17 - - 3.8
11/04:00am 10.9 8.3 10.6 98 0.2 WSW 15 24 8 13 - - 3.8
11/03:30am 11.1 7.5 10.6 97 0.3 WSW 20 33 11 18 - - 3.8
11/03:00am 11.2 8.3 10.9 98 0.2 WSW 17 32 9 17 - - 3.8
11/02:30am 11.3 7.8 11.0 98 0.2 WSW 20 30 11 16 - - 3.8
11/02:00am 11.6 8.7 11.1 97 0.3 WSW 17 24 9 13 - - 3.4
11/01:30am 11.9 9.1 11.4 97 0.3 WSW 17 24 9 13 - - 3.4
11/01:00am 12.0 9.6 11.4 96 0.3 SW 15 26 8 14 - - 3.4
11/12:30am 12.1 8.2 10.7 91 0.7 SW 22 35 12 19 - - 3.4
11/12:06am 14.1 9.1 12.1 88 1.1 SSW 30 56 16 30 - - 3.4
11/12:00am 13.6 9.0 12.2 91 0.8 SSW 28 41 15 22 - - 3.4
 
Date/Time
EST
Temp
°C
App
Temp
°C
Dew
Point
°C
Rel
Hum
%
Delta-T
°C
Wind Press
QNH
hPa
Press
MSL
hPa
Rain since
9am
mm
Dir  Spd
km/h
Gust
km/h
Spd
kts
Gust
kts
10/11:30pm 14.4 8.5 11.2 81 1.7 S 33 46 18 25 - - 3.4
10/11:00pm 14.1 9.3 11.6 85 1.3 SSW 28 35 15 19 - - 3.4
10/10:30pm 13.5 7.9 10.3 81 1.7 SSW 30 44 16 24 - - 3.4
10/10:00pm 14.4 8.6 11.4 82 1.6 SSW 33 48 18 26 - - 3.4
10/09:36pm 13.4 6.3 10.9 85 1.3 SSW 39 57 21 31 - - 3.4
10/09:30pm 13.7 5.3 10.9 83 1.5 S 46 57 25 31 - - 3.4
10/09:00pm 14.8 7.7 11.0 78 2.0 SSW 39 54 21 29 - - 3.4
10/08:30pm 14.1 5.0 11.1 82 1.6 S 50 67 27 36 - - 3.4
10/08:24pm 14.3 6.4 11.3 82 1.6 SSW 44 67 24 36 - - 3.4
10/08:00pm 14.1 7.4 11.1 82 1.6 SSW 37 52 20 28 - - 3.4
10/07:30pm 13.7 6.1 11.9 89 1.0 S 43 56 23 30 - - 3.2
10/07:18pm 13.0 3.7 11.7 92 0.7 S 52 70 28 38 - - 3.2
10/07:11pm 13.3 5.5 11.7 90 0.9 S 44 70 24 38 - - 3.2
10/07:00pm 12.7 5.9 11.8 94 0.5 SSW 39 59 21 32 - - 3.0
10/06:30pm 12.4 4.0 11.0 91 0.7 S 46 70 25 38 - - 2.8
10/06:25pm 12.2 3.7 10.6 90 0.8 S 46 70 25 38 - - 2.8
10/06:00pm 14.1 4.6 11.1 82 1.6 S 52 67 28 36 - - 2.6
10/05:30pm 14.7 6.0 10.1 74 2.4 S 46 69 25 37 - - 2.6
10/05:00pm 14.2 5.4 12.1 87 1.1 SSW 50 72 27 39 - - 2.6
10/04:46pm 12.8 5.2 11.7 93 0.6 S 43 61 23 33 - - 2.6
10/04:30pm 13.4 4.6 10.9 85 1.3 S 48 63 26 34 - - 1.8
10/04:00pm 13.1 3.3 11.5 90 0.8 S 54 72 29 39 - - 1.8
10/03:42pm 13.1 2.7 10.8 86 1.2 S 56 74 30 40 - - 1.6
10/03:30pm 15.0 5.2 10.2 73 2.5 S 52 65 28 35 - - 1.4
10/03:15pm 12.9 1.4 10.3 84 1.3 S 61 83 33 45 - - 1.4
10/03:10pm 14.5 3.9 10.5 77 2.1 S 57 78 31 42 - - 1.4
10/03:00pm 14.6 6.3 12.5 87 1.1 SSW 48 69 26 37 - - 1.4
10/02:44pm 14.6 6.9 11.4 81 1.7 SSW 43 61 23 33 - - 1.4
10/02:30pm 13.9 3.8 10.3 79 1.9 S 54 69 29 37 - - 1.4
10/02:00pm 14.9 5.0 11.1 78 2.0 SSW 54 76 29 41 - - 1.4
10/01:35pm 15.2 5.9 10.4 73 2.5 SSW 50 72 27 39 - - 1.4
10/01:30pm 15.0 6.2 10.8 76 2.2 SSW 48 65 26 35 - - 1.4
10/01:11pm 14.8 5.5 10.4 75 2.3 SSW 50 69 27 37 - - 1.4
10/01:00pm 15.2 4.5 10.4 73 2.5 S 57 72 31 39 - - 1.4
10/12:30pm 16.2 4.5 10.7 70 2.9 S 63 80 34 43 - - 1.4
10/12:00pm 15.9 4.5 10.4 70 2.9 S 61 78 33 42 - - 1.4
10/11:56am 15.8 5.6 11.4 75 2.4 S 56 76 30 41 - - 1.4
10/11:30am 13.8 3.9 13.0 95 0.4 S 57 69 31 37 - - 1.4
10/11:00am 15.3 4.0 12.1 81 1.7 S 63 83 34 45 - - 1.2
10/10:57am 15.6 5.1 12.2 80 1.9 S 59 80 32 43 - - 1.2
10/10:30am 16.1 3.4 11.3 73 2.6 S 69 83 37 45 - - 1.2
10/10:26am 16.2 4.8 11.8 75 2.4 S 63 82 34 44 - - 1.2
10/10:00am 16.1 4.2 12.7 80 1.9 S 67 82 36 44 - - 1.2
10/09:30am 15.3 5.8 15.1 99 0.1 S 59 76 32 41 - - 1.0
10/09:06am 14.2 4.7 14.2 100 0.0 SSE 57 76 31 41 - - 0.4
10/09:00am 14.3 5.8 14.3 100 0.0 SSE 52 76 28 41 - - 4.8
10/08:57am 14.6 7.7 14.6 100 0.0 SSE 44 76 24 41 - - 4.6
10/08:54am 14.2 8.9 14.2 100 0.0 SSE 35 59 19 32 - - 4.4
10/08:30am 14.1 7.0 14.1 100 0.0 S 44 59 24 32 - - 3.2
10/08:22am 14.5 - - - - S 39 57 21 31 - - 2.6
10/08:00am 14.0 - - - - S 33 41 18 22 - - 1.6
10/07:52am 13.7 - - - - SSW 32 41 17 22 - - 1.4
10/07:30am 11.8 - - - - WSW 11 20 6 11 - - 1.2
10/07:00am 9.8 7.3 9.8 100 0.0 WNW 13 17 7 9 - - 0.6
10/06:30am 9.1 6.4 9.1 100 0.0 W 13 17 7 9 - - 0.0
10/06:00am 8.9 6.2 8.9 100 0.0 NW 13 19 7 10 - - 0.0
10/05:30am 8.6 5.8 8.6 100 0.0 WNW 13 17 7 9 - - 0.0
10/05:00am 8.7 5.2 8.7 100 0.0 NW 17 20 9 11 - - 0.0
10/04:30am 8.7 5.2 8.7 100 0.0 NW 17 20 9 11 - - 0.0
10/04:00am 8.8 4.9 8.8 100 0.0 WNW 19 24 10 13 - - 0.0
10/03:30am 8.6 6.2 8.6 100 0.0 WNW 11 17 6 9 - - 0.0
10/03:00am 8.6 5.4 8.6 100 0.0 WNW 15 17 8 9 - - 0.0
10/02:30am 8.3 5.8 8.2 99 0.0 WNW 11 17 6 9 - - 0.0
10/02:00am 8.3 5.0 8.2 99 0.0 WNW 15 19 8 10 - - 0.0
10/01:30am 8.3 5.0 8.0 98 0.1 WNW 15 19 8 10 - - 0.0
10/01:00am 8.4 4.7 8.1 98 0.1 WNW 17 22 9 12 - - 0.0
10/12:30am 8.4 4.3 8.0 97 0.2 WNW 19 24 10 13 - - 0.0
10/12:00am 8.4 4.1 8.0 97 0.2 WNW 20 26 11 14 - - 0.0
 
Date/Time
EST
Temp
°C
App
Temp
°C
Dew
Point
°C
Rel
Hum
%
Delta-T
°C
Wind Press
QNH
hPa
Press
MSL
hPa
Rain since
9am
mm
Dir  Spd
km/h
Gust
km/h
Spd
kts
Gust
kts
09/11:30pm 8.5 4.2 7.9 96 0.3 NW 20 28 11 15 - - 0.0
09/11:00pm 8.7 4.3 7.6 93 0.5 NW 20 30 11 16 - - 0.0

Latest Capital City Observations: Canberra | Sydney | Melbourne | Brisbane | Adelaide | Perth | Hobart | Darwin

Other formats

Comma delimited format used in spreadsheet applications
http://www.bom.gov.au/fwo/IDN60901/IDN60901.94774.axf

JavaScript Object Notation format (JSON) in row-major order
http://www.bom.gov.au/fwo/IDN60901/IDN60901.94774.json

Data quality

Most of these data are generated automatically and are frequently updated. Quality checks on data are not normally performed. It is possible for incorrect values to appear. Refer to information at About Latest Weather Observations and please check the disclaimer before using these data.